sensor_id;sensor_type;location;lat;lon;timestamp;temperature;humidity
2973;DHT22;1496;51.404;7.232;2023-02-28T00:01:04;1.50;99.90
2973;DHT22;1496;51.404;7.232;2023-02-28T00:03:30;1.60;99.90
2973;DHT22;1496;51.404;7.232;2023-02-28T00:05:56;1.60;99.90
2973;DHT22;1496;51.404;7.232;2023-02-28T00:08:21;1.60;99.90
2973;DHT22;1496;51.404;7.232;2023-02-28T00:10:47;1.60;99.90
2973;DHT22;1496;51.404;7.232;2023-02-28T00:13:12;1.50;99.90
2973;DHT22;1496;51.404;7.232;2023-02-28T00:15:38;1.50;99.90
2973;DHT22;1496;51.404;7.232;2023-02-28T00:18:04;1.50;99.90
2973;DHT22;1496;51.404;7.232;2023-02-28T00:20:30;1.40;99.90
2973;DHT22;1496;51.404;7.232;2023-02-28T00:22:56;1.40;99.90
2973;DHT22;1496;51.404;7.232;2023-02-28T00:25:25;1.40;99.90
2973;DHT22;1496;51.404;7.232;2023-02-28T00:27:51;1.30;99.90
2973;DHT22;1496;51.404;7.232;2023-02-28T00:30:19;1.30;99.90
2973;DHT22;1496;51.404;7.232;2023-02-28T00:32:45;1.30;99.90
2973;DHT22;1496;51.404;7.232;2023-02-28T00:35:11;1.40;99.90
2973;DHT22;1496;51.404;7.232;2023-02-28T00:37:40;1.20;99.90
2973;DHT22;1496;51.404;7.232;2023-02-28T00:40:07;1.30;99.90
2973;DHT22;1496;51.404;7.232;2023-02-28T00:42:36;1.20;99.90
2973;DHT22;1496;51.404;7.232;2023-02-28T00:45:03;1.10;99.90
2973;DHT22;1496;51.404;7.232;2023-02-28T00:47:30;1.20;99.90
2973;DHT22;1496;51.404;7.232;2023-02-28T00:49:56;1.20;99.90
2973;DHT22;1496;51.404;7.232;2023-02-28T00:52:21;1.20;99.90
2973;DHT22;1496;51.404;7.232;2023-02-28T00:54:47;1.20;99.90
2973;DHT22;1496;51.404;7.232;2023-02-28T00:57:14;1.20;99.90
2973;DHT22;1496;51.404;7.232;2023-02-28T00:59:39;1.20;99.90
2973;DHT22;1496;51.404;7.232;2023-02-28T01:02:05;1.20;99.90
2973;DHT22;1496;51.404;7.232;2023-02-28T01:04:31;1.10;99.90
2973;DHT22;1496;51.404;7.232;2023-02-28T01:07:00;1.10;99.90
2973;DHT22;1496;51.404;7.232;2023-02-28T01:09:28;1.10;99.90
2973;DHT22;1496;51.404;7.232;2023-02-28T01:11:54;1.00;99.90
2973;DHT22;1496;51.404;7.232;2023-02-28T01:14:19;1.00;99.90
2973;DHT22;1496;51.404;7.232;2023-02-28T01:16:46;1.00;99.90
2973;DHT22;1496;51.404;7.232;2023-02-28T01:19:11;1.10;99.90
2973;DHT22;1496;51.404;7.232;2023-02-28T01:21:38;1.10;99.90
2973;DHT22;1496;51.404;7.232;2023-02-28T01:24:05;1.00;99.90
2973;DHT22;1496;51.404;7.232;2023-02-28T01:26:31;1.00;99.90
2973;DHT22;1496;51.404;7.232;2023-02-28T01:28:57;0.90;99.90
2973;DHT22;1496;51.404;7.232;2023-02-28T01:31:25;0.90;99.90
2973;DHT22;1496;51.404;7.232;2023-02-28T01:33:51;0.80;99.90
2973;DHT22;1496;51.404;7.232;2023-02-28T01:36:21;0.80;99.90
2973;DHT22;1496;51.404;7.232;2023-02-28T01:38:48;0.80;99.90
2973;DHT22;1496;51.404;7.232;2023-02-28T01:41:23;0.80;99.90
2973;DHT22;1496;51.404;7.232;2023-02-28T01:46:15;0.70;99.90
2973;DHT22;1496;51.404;7.232;2023-02-28T01:48:47;0.70;99.90
2973;DHT22;1496;51.404;7.232;2023-02-28T01:51:18;0.70;99.90
2973;DHT22;1496;51.404;7.232;2023-02-28T01:53:49;0.70;99.90
2973;DHT22;1496;51.404;7.232;2023-02-28T01:56:22;0.70;99.90
2973;DHT22;1496;51.404;7.232;2023-02-28T01:58:50;0.70;99.90
2973;DHT22;1496;51.404;7.232;2023-02-28T02:01:18;0.60;99.90
2973;DHT22;1496;51.404;7.232;2023-02-28T02:03:49;0.50;99.90
2973;DHT22;1496;51.404;7.232;2023-02-28T02:06:22;0.40;99.90
2973;DHT22;1496;51.404;7.232;2023-02-28T02:08:48;0.50;99.90
2973;DHT22;1496;51.404;7.232;2023-02-28T02:11:17;0.50;99.90
2973;DHT22;1496;51.404;7.232;2023-02-28T02:22:33;0.60;99.90
2973;DHT22;1496;51.404;7.232;2023-02-28T02:36:14;0.60;99.90
2973;DHT22;1496;51.404;7.232;2023-02-28T02:38:58;0.60;99.90
2973;DHT22;1496;51.404;7.232;2023-02-28T02:41:34;0.50;99.90
2973;DHT22;1496;51.404;7.232;2023-02-28T02:44:11;0.40;99.90
2973;DHT22;1496;51.404;7.232;2023-02-28T02:46:41;0.40;99.90
2973;DHT22;1496;51.404;7.232;2023-02-28T02:49:10;0.30;99.90
2973;DHT22;1496;51.404;7.232;2023-02-28T02:51:38;0.20;99.90
2973;DHT22;1496;51.404;7.232;2023-02-28T02:54:08;0.20;99.90
2973;DHT22;1496;51.404;7.232;2023-02-28T02:56:39;0.20;99.90
2973;DHT22;1496;51.404;7.232;2023-02-28T02:59:10;0.20;99.90
2973;DHT22;1496;51.404;7.232;2023-02-28T03:01:37;0.10;99.90
2973;DHT22;1496;51.404;7.232;2023-02-28T03:04:09;0.20;99.90
2973;DHT22;1496;51.404;7.232;2023-02-28T03:06:37;0.20;99.90
2973;DHT22;1496;51.404;7.232;2023-02-28T03:09:03;0.10;99.90
2973;DHT22;1496;51.404;7.232;2023-02-28T03:11:30;0.10;99.90
2973;DHT22;1496;51.404;7.232;2023-02-28T03:19:51;0.10;99.90
2973;DHT22;1496;51.404;7.232;2023-02-28T03:22:40;0.10;99.90
2973;DHT22;1496;51.404;7.232;2023-02-28T03:30:41;0.10;99.90
2973;DHT22;1496;51.404;7.232;2023-02-28T03:33:17;0.00;99.90
2973;DHT22;1496;51.404;7.232;2023-02-28T03:36:04;0.00;99.90
2973;DHT22;1496;51.404;7.232;2023-02-28T03:38:36;0.00;99.90
2973;DHT22;1496;51.404;7.232;2023-02-28T03:41:58;0.00;99.90
2973;DHT22;1496;51.404;7.232;2023-02-28T03:44:13;0.00;99.90
2973;DHT22;1496;51.404;7.232;2023-02-28T03:46:48;0.10;99.90
2973;DHT22;1496;51.404;7.232;2023-02-28T03:49:19;0.00;99.90
2973;DHT22;1496;51.404;7.232;2023-02-28T03:51:49;0.00;99.90
2973;DHT22;1496;51.404;7.232;2023-02-28T03:54:19;0.00;99.90
2973;DHT22;1496;51.404;7.232;2023-02-28T03:56:52;0.00;99.90
2973;DHT22;1496;51.404;7.232;2023-02-28T03:59:26;0.00;99.90
2973;DHT22;1496;51.404;7.232;2023-02-28T04:01:53;0.00;99.90
2973;DHT22;1496;51.404;7.232;2023-02-28T04:04:20;-0.10;99.90
2973;DHT22;1496;51.404;7.232;2023-02-28T04:06:50;0.00;99.90
2973;DHT22;1496;51.404;7.232;2023-02-28T04:09:16;-0.10;99.90
2973;DHT22;1496;51.404;7.232;2023-02-28T04:11:48;-0.10;99.90
2973;DHT22;1496;51.404;7.232;2023-02-28T04:14:16;-0.10;99.90
2973;DHT22;1496;51.404;7.232;2023-02-28T04:16:43;-0.20;99.90
2973;DHT22;1496;51.404;7.232;2023-02-28T04:19:11;-0.20;99.90
2973;DHT22;1496;51.404;7.232;2023-02-28T04:21:40;-0.30;99.90
2973;DHT22;1496;51.404;7.232;2023-02-28T04:24:10;-0.30;99.90
2973;DHT22;1496;51.404;7.232;2023-02-28T04:26:41;-0.30;99.90
2973;DHT22;1496;51.404;7.232;2023-02-28T04:29:10;-0.30;99.90
2973;DHT22;1496;51.404;7.232;2023-02-28T04:31:36;-0.20;99.90
2973;DHT22;1496;51.404;7.232;2023-02-28T04:34:02;-0.30;99.90
2973;DHT22;1496;51.404;7.232;2023-02-28T04:36:28;-0.40;99.90
2973;DHT22;1496;51.404;7.232;2023-02-28T04:38:54;-0.30;99.90
2973;DHT22;1496;51.404;7.232;2023-02-28T04:41:20;-0.40;99.90
2973;DHT22;1496;51.404;7.232;2023-02-28T04:43:46;-0.40;99.90
2973;DHT22;1496;51.404;7.232;2023-02-28T04:46:12;-0.40;99.90
2973;DHT22;1496;51.404;7.232;2023-02-28T04:48:38;-0.50;99.90
2973;DHT22;1496;51.404;7.232;2023-02-28T04:51:07;-0.50;99.90
2973;DHT22;1496;51.404;7.232;2023-02-28T04:53:34;-0.50;99.90
2973;DHT22;1496;51.404;7.232;2023-02-28T04:56:00;-0.50;99.90
2973;DHT22;1496;51.404;7.232;2023-02-28T04:58:26;-0.50;99.90
2973;DHT22;1496;51.404;7.232;2023-02-28T05:00:52;-0.40;99.90
2973;DHT22;1496;51.404;7.232;2023-02-28T05:03:18;-0.40;99.90
2973;DHT22;1496;51.404;7.232;2023-02-28T05:05:44;-0.50;99.90
2973;DHT22;1496;51.404;7.232;2023-02-28T05:08:10;-0.40;99.90
2973;DHT22;1496;51.404;7.232;2023-02-28T05:10:36;-0.50;99.90
2973;DHT22;1496;51.404;7.232;2023-02-28T05:13:02;-0.40;99.90
2973;DHT22;1496;51.404;7.232;2023-02-28T05:15:27;-0.50;99.90
2973;DHT22;1496;51.404;7.232;2023-02-28T05:17:53;-0.50;99.90
2973;DHT22;1496;51.404;7.232;2023-02-28T05:20:19;-0.50;99.90
2973;DHT22;1496;51.404;7.232;2023-02-28T05:22:46;-0.40;99.90
2973;DHT22;1496;51.404;7.232;2023-02-28T05:25:16;-0.50;99.90
2973;DHT22;1496;51.404;7.232;2023-02-28T05:27:42;-0.50;99.90
2973;DHT22;1496;51.404;7.232;2023-02-28T05:30:09;-0.50;99.90
2973;DHT22;1496;51.404;7.232;2023-02-28T05:32:38;-0.50;99.90
2973;DHT22;1496;51.404;7.232;2023-02-28T05:35:08;-0.50;99.90
2973;DHT22;1496;51.404;7.232;2023-02-28T05:37:34;-0.50;99.90
2973;DHT22;1496;51.404;7.232;2023-02-28T05:40:00;-0.50;99.90
2973;DHT22;1496;51.404;7.232;2023-02-28T05:42:26;-0.40;99.90
2973;DHT22;1496;51.404;7.232;2023-02-28T05:44:51;-0.40;99.90
2973;DHT22;1496;51.404;7.232;2023-02-28T05:47:17;-0.50;99.90
2973;DHT22;1496;51.404;7.232;2023-02-28T05:49:43;-0.50;99.90
2973;DHT22;1496;51.404;7.232;2023-02-28T05:52:08;-0.40;99.90
2973;DHT22;1496;51.404;7.232;2023-02-28T05:54:34;-0.40;99.90
2973;DHT22;1496;51.404;7.232;2023-02-28T05:56:59;-0.50;99.90
2973;DHT22;1496;51.404;7.232;2023-02-28T05:59:25;-0.50;99.90
2973;DHT22;1496;51.404;7.232;2023-02-28T06:01:51;-0.50;99.90
2973;DHT22;1496;51.404;7.232;2023-02-28T06:04:19;-0.50;99.90
2973;DHT22;1496;51.404;7.232;2023-02-28T06:06:47;-0.50;99.90
2973;DHT22;1496;51.404;7.232;2023-02-28T06:09:13;-0.50;99.90
2973;DHT22;1496;51.404;7.232;2023-02-28T06:11:39;-0.50;99.90
2973;DHT22;1496;51.404;7.232;2023-02-28T06:14:05;-0.50;99.90
2973;DHT22;1496;51.404;7.232;2023-02-28T06:16:33;-0.50;99.90
2973;DHT22;1496;51.404;7.232;2023-02-28T06:19:01;-0.50;99.90
2973;DHT22;1496;51.404;7.232;2023-02-28T06:21:27;-0.50;99.90
2973;DHT22;1496;51.404;7.232;2023-02-28T06:23:53;-0.60;99.90
2973;DHT22;1496;51.404;7.232;2023-02-28T06:26:19;-0.50;99.90
2973;DHT22;1496;51.404;7.232;2023-02-28T06:28:45;-0.50;99.90
2973;DHT22;1496;51.404;7.232;2023-02-28T06:31:14;-0.60;99.90
2973;DHT22;1496;51.404;7.232;2023-02-28T06:33:40;-0.50;99.90
2973;DHT22;1496;51.404;7.232;2023-02-28T06:36:07;-0.60;99.90
2973;DHT22;1496;51.404;7.232;2023-02-28T06:38:33;-0.60;99.90
2973;DHT22;1496;51.404;7.232;2023-02-28T06:40:59;-0.60;99.90
2973;DHT22;1496;51.404;7.232;2023-02-28T06:43:31;-0.50;99.90
2973;DHT22;1496;51.404;7.232;2023-02-28T06:45:59;-0.60;99.90
2973;DHT22;1496;51.404;7.232;2023-02-28T06:48:26;-0.60;99.90
2973;DHT22;1496;51.404;7.232;2023-02-28T06:50:52;-0.60;99.90
2973;DHT22;1496;51.404;7.232;2023-02-28T06:53:18;-0.70;99.90
2973;DHT22;1496;51.404;7.232;2023-02-28T06:55:44;-0.60;99.90
2973;DHT22;1496;51.404;7.232;2023-02-28T06:58:09;-0.60;99.90
2973;DHT22;1496;51.404;7.232;2023-02-28T07:00:42;-0.60;99.90
2973;DHT22;1496;51.404;7.232;2023-02-28T07:03:08;-0.60;99.90
2973;DHT22;1496;51.404;7.232;2023-02-28T07:05:35;-0.60;99.90
2973;DHT22;1496;51.404;7.232;2023-02-28T07:08:02;-0.60;99.90
2973;DHT22;1496;51.404;7.232;2023-02-28T07:10:29;-0.70;99.90
2973;DHT22;1496;51.404;7.232;2023-02-28T07:12:54;-0.60;99.90
2973;DHT22;1496;51.404;7.232;2023-02-28T07:15:20;-0.60;99.90
2973;DHT22;1496;51.404;7.232;2023-02-28T07:17:45;-0.60;99.90
2973;DHT22;1496;51.404;7.232;2023-02-28T07:20:11;-0.60;99.90
2973;DHT22;1496;51.404;7.232;2023-02-28T07:22:37;-0.50;99.90
2973;DHT22;1496;51.404;7.232;2023-02-28T07:25:04;-0.50;99.90
2973;DHT22;1496;51.404;7.232;2023-02-28T07:27:30;-0.50;99.90
2973;DHT22;1496;51.404;7.232;2023-02-28T07:29:56;-0.40;99.90
2973;DHT22;1496;51.404;7.232;2023-02-28T07:32:22;-0.40;99.90
2973;DHT22;1496;51.404;7.232;2023-02-28T07:34:48;-0.40;99.90
2973;DHT22;1496;51.404;7.232;2023-02-28T07:37:14;-0.30;99.90
2973;DHT22;1496;51.404;7.232;2023-02-28T07:39:40;-0.20;99.90
2973;DHT22;1496;51.404;7.232;2023-02-28T07:42:07;-0.10;99.90
2973;DHT22;1496;51.404;7.232;2023-02-28T07:44:36;0.00;99.90
2973;DHT22;1496;51.404;7.232;2023-02-28T07:47:06;0.10;99.90
2973;DHT22;1496;51.404;7.232;2023-02-28T07:49:32;0.10;99.90
2973;DHT22;1496;51.404;7.232;2023-02-28T07:51:58;0.10;99.90
2973;DHT22;1496;51.404;7.232;2023-02-28T07:54:23;0.20;99.90
2973;DHT22;1496;51.404;7.232;2023-02-28T07:56:49;0.30;99.90
2973;DHT22;1496;51.404;7.232;2023-02-28T07:59:14;0.40;99.90
2973;DHT22;1496;51.404;7.232;2023-02-28T08:01:40;0.40;99.90
2973;DHT22;1496;51.404;7.232;2023-02-28T08:04:06;0.50;99.90
2973;DHT22;1496;51.404;7.232;2023-02-28T08:06:31;0.60;99.90
2973;DHT22;1496;51.404;7.232;2023-02-28T08:08:57;0.70;99.90
2973;DHT22;1496;51.404;7.232;2023-02-28T08:11:23;0.70;99.90
2973;DHT22;1496;51.404;7.232;2023-02-28T08:13:49;0.70;99.90
2973;DHT22;1496;51.404;7.232;2023-02-28T08:16:15;0.80;99.90
2973;DHT22;1496;51.404;7.232;2023-02-28T08:18:46;0.80;99.90
2973;DHT22;1496;51.404;7.232;2023-02-28T08:21:12;0.70;99.90
2973;DHT22;1496;51.404;7.232;2023-02-28T08:23:37;0.60;99.90
2973;DHT22;1496;51.404;7.232;2023-02-28T08:26:04;0.60;99.90
2973;DHT22;1496;51.404;7.232;2023-02-28T08:28:30;0.60;99.90
2973;DHT22;1496;51.404;7.232;2023-02-28T08:30:56;0.80;99.90
2973;DHT22;1496;51.404;7.232;2023-02-28T08:33:22;0.90;99.90
2973;DHT22;1496;51.404;7.232;2023-02-28T08:35:48;0.90;99.90
2973;DHT22;1496;51.404;7.232;2023-02-28T08:38:14;0.90;99.90
2973;DHT22;1496;51.404;7.232;2023-02-28T08:40:39;0.80;99.90
2973;DHT22;1496;51.404;7.232;2023-02-28T08:43:06;0.80;99.90
2973;DHT22;1496;51.404;7.232;2023-02-28T08:45:31;0.80;99.90
2973;DHT22;1496;51.404;7.232;2023-02-28T08:47:57;0.80;99.90
2973;DHT22;1496;51.404;7.232;2023-02-28T08:50:22;0.80;99.90
2973;DHT22;1496;51.404;7.232;2023-02-28T08:52:48;0.80;99.90
2973;DHT22;1496;51.404;7.232;2023-02-28T08:55:14;0.80;99.90
2973;DHT22;1496;51.404;7.232;2023-02-28T08:57:40;0.70;99.90
2973;DHT22;1496;51.404;7.232;2023-02-28T09:00:06;0.80;99.90
2973;DHT22;1496;51.404;7.232;2023-02-28T09:02:33;0.90;99.90
2973;DHT22;1496;51.404;7.232;2023-02-28T09:04:58;1.00;99.90
2973;DHT22;1496;51.404;7.232;2023-02-28T09:07:24;1.10;99.90
2973;DHT22;1496;51.404;7.232;2023-02-28T09:09:50;1.20;99.90
2973;DHT22;1496;51.404;7.232;2023-02-28T09:12:24;1.20;99.90
2973;DHT22;1496;51.404;7.232;2023-02-28T09:14:50;1.20;99.90
2973;DHT22;1496;51.404;7.232;2023-02-28T09:17:16;1.10;99.90
2973;DHT22;1496;51.404;7.232;2023-02-28T09:19:42;1.10;99.90
2973;DHT22;1496;51.404;7.232;2023-02-28T09:22:09;1.10;99.90
2973;DHT22;1496;51.404;7.232;2023-02-28T09:24:36;1.20;99.90
2973;DHT22;1496;51.404;7.232;2023-02-28T09:27:02;1.20;99.90
2973;DHT22;1496;51.404;7.232;2023-02-28T09:29:28;1.10;99.90
2973;DHT22;1496;51.404;7.232;2023-02-28T09:31:54;1.00;99.90
2973;DHT22;1496;51.404;7.232;2023-02-28T09:34:21;1.10;99.90
2973;DHT22;1496;51.404;7.232;2023-02-28T09:36:48;1.20;99.90
2973;DHT22;1496;51.404;7.232;2023-02-28T09:39:16;1.30;99.90
2973;DHT22;1496;51.404;7.232;2023-02-28T09:41:44;1.50;99.90
2973;DHT22;1496;51.404;7.232;2023-02-28T09:44:43;1.40;99.90
2973;DHT22;1496;51.404;7.232;2023-02-28T09:53:16;1.50;99.90
2973;DHT22;1496;51.404;7.232;2023-02-28T09:55:49;1.60;99.90
2973;DHT22;1496;51.404;7.232;2023-02-28T09:58:49;1.60;99.90
2973;DHT22;1496;51.404;7.232;2023-02-28T10:01:39;1.50;99.90
2973;DHT22;1496;51.404;7.232;2023-02-28T10:06:50;1.40;99.90
2973;DHT22;1496;51.404;7.232;2023-02-28T10:09:23;1.40;99.90
2973;DHT22;1496;51.404;7.232;2023-02-28T10:11:52;1.30;99.90
2973;DHT22;1496;51.404;7.232;2023-02-28T10:14:19;1.30;99.90
2973;DHT22;1496;51.404;7.232;2023-02-28T10:16:53;1.30;99.90
2973;DHT22;1496;51.404;7.232;2023-02-28T10:20:13;1.30;99.90
2973;DHT22;1496;51.404;7.232;2023-02-28T10:23:03;1.40;99.90
2973;DHT22;1496;51.404;7.232;2023-02-28T10:25:19;1.70;99.90
2973;DHT22;1496;51.404;7.232;2023-02-28T10:27:45;1.80;99.90
2973;DHT22;1496;51.404;7.232;2023-02-28T10:30:11;1.90;99.90
2973;DHT22;1496;51.404;7.232;2023-02-28T10:32:40;2.00;99.90
2973;DHT22;1496;51.404;7.232;2023-02-28T10:37:46;2.30;99.90
2973;DHT22;1496;51.404;7.232;2023-02-28T10:43:04;2.40;99.90
2973;DHT22;1496;51.404;7.232;2023-02-28T10:45:34;2.60;99.90
2973;DHT22;1496;51.404;7.232;2023-02-28T10:48:03;2.70;99.90
2973;DHT22;1496;51.404;7.232;2023-02-28T11:03:49;3.10;99.90
2973;DHT22;1496;51.404;7.232;2023-02-28T11:06:35;3.10;99.90
2973;DHT22;1496;51.404;7.232;2023-02-28T11:09:04;3.00;99.90
2973;DHT22;1496;51.404;7.232;2023-02-28T11:11:42;3.10;99.90
2973;DHT22;1496;51.404;7.232;2023-02-28T11:14:26;3.10;99.90
2973;DHT22;1496;51.404;7.232;2023-02-28T11:16:53;3.10;99.90
2973;DHT22;1496;51.404;7.232;2023-02-28T11:19:26;2.90;99.90
2973;DHT22;1496;51.404;7.232;2023-02-28T11:22:02;3.00;99.90
2973;DHT22;1496;51.404;7.232;2023-02-28T11:24:30;3.10;99.90
2973;DHT22;1496;51.404;7.232;2023-02-28T11:26:59;3.10;99.90
2973;DHT22;1496;51.404;7.232;2023-02-28T11:29:32;3.10;99.90
2973;DHT22;1496;51.404;7.232;2023-02-28T11:32:20;3.10;99.90
2973;DHT22;1496;51.404;7.232;2023-02-28T11:34:59;3.20;99.90
2973;DHT22;1496;51.404;7.232;2023-02-28T11:37:27;3.20;99.90
2973;DHT22;1496;51.404;7.232;2023-02-28T11:39:53;3.30;99.90
2973;DHT22;1496;51.404;7.232;2023-02-28T11:50:38;3.10;99.90
2973;DHT22;1496;51.404;7.232;2023-02-28T11:53:10;3.10;99.90
2973;DHT22;1496;51.404;7.232;2023-02-28T11:55:43;3.20;99.90
2973;DHT22;1496;51.404;7.232;2023-02-28T12:06:33;3.70;99.90
2973;DHT22;1496;51.404;7.232;2023-02-28T12:17:27;3.80;99.90
2973;DHT22;1496;51.404;7.232;2023-02-28T12:20:10;3.90;99.90
2973;DHT22;1496;51.404;7.232;2023-02-28T12:26:09;3.70;99.90
2973;DHT22;1496;51.404;7.232;2023-02-28T12:28:53;3.70;99.90
2973;DHT22;1496;51.404;7.232;2023-02-28T12:31:33;3.90;99.90
2973;DHT22;1496;51.404;7.232;2023-02-28T12:34:04;3.90;99.90
2973;DHT22;1496;51.404;7.232;2023-02-28T12:36:32;3.90;99.80
2973;DHT22;1496;51.404;7.232;2023-02-28T12:39:25;4.00;99.70
2973;DHT22;1496;51.404;7.232;2023-02-28T12:42:03;4.00;99.10
2973;DHT22;1496;51.404;7.232;2023-02-28T12:44:34;3.90;98.50
2973;DHT22;1496;51.404;7.232;2023-02-28T12:47:04;3.80;98.90
2973;DHT22;1496;51.404;7.232;2023-02-28T12:49:45;4.00;98.00
2973;DHT22;1496;51.404;7.232;2023-02-28T12:52:16;4.00;98.10
2973;DHT22;1496;51.404;7.232;2023-02-28T12:54:49;4.00;97.60
2973;DHT22;1496;51.404;7.232;2023-02-28T12:57:31;4.00;97.10
2973;DHT22;1496;51.404;7.232;2023-02-28T13:00:04;4.00;97.00
2973;DHT22;1496;51.404;7.232;2023-02-28T13:10:47;4.10;96.00
2973;DHT22;1496;51.404;7.232;2023-02-28T13:13:21;4.00;95.80
2973;DHT22;1496;51.404;7.232;2023-02-28T13:21:00;4.10;95.00
2973;DHT22;1496;51.404;7.232;2023-02-28T13:26:16;4.10;94.10
2973;DHT22;1496;51.404;7.232;2023-02-28T13:31:14;4.30;95.10
2973;DHT22;1496;51.404;7.232;2023-02-28T13:36:27;4.40;95.30
2973;DHT22;1496;51.404;7.232;2023-02-28T13:42:31;4.30;99.90
2973;DHT22;1496;51.404;7.232;2023-02-28T13:47:56;4.10;93.70
2973;DHT22;1496;51.404;7.232;2023-02-28T14:01:27;4.20;93.60
2973;DHT22;1496;51.404;7.232;2023-02-28T14:04:19;4.20;92.90
2973;DHT22;1496;51.404;7.232;2023-02-28T14:06:55;4.20;92.70
2973;DHT22;1496;51.404;7.232;2023-02-28T14:09:38;4.10;91.90
2973;DHT22;1496;51.404;7.232;2023-02-28T14:12:54;4.20;92.40
2973;DHT22;1496;51.404;7.232;2023-02-28T14:15:35;4.30;92.40
2973;DHT22;1496;51.404;7.232;2023-02-28T14:18:03;4.30;92.10
2973;DHT22;1496;51.404;7.232;2023-02-28T14:20:32;4.40;92.00
2973;DHT22;1496;51.404;7.232;2023-02-28T14:32:34;4.40;91.80
2973;DHT22;1496;51.404;7.232;2023-02-28T14:37:47;4.50;91.70
2973;DHT22;1496;51.404;7.232;2023-02-28T14:40:32;4.50;92.00
2973;DHT22;1496;51.404;7.232;2023-02-28T14:43:00;4.40;90.30
2973;DHT22;1496;51.404;7.232;2023-02-28T14:45:29;4.40;90.80
2973;DHT22;1496;51.404;7.232;2023-02-28T14:47:56;4.40;91.20
2973;DHT22;1496;51.404;7.232;2023-02-28T14:50:26;4.40;91.70
2973;DHT22;1496;51.404;7.232;2023-02-28T14:52:55;4.40;91.50
2973;DHT22;1496;51.404;7.232;2023-02-28T14:55:36;4.40;92.20
2973;DHT22;1496;51.404;7.232;2023-02-28T14:58:19;4.40;91.70
2973;DHT22;1496;51.404;7.232;2023-02-28T15:00:48;4.30;91.90
2973;DHT22;1496;51.404;7.232;2023-02-28T15:03:33;4.30;91.70
2973;DHT22;1496;51.404;7.232;2023-02-28T15:06:14;4.30;91.60
2973;DHT22;1496;51.404;7.232;2023-02-28T15:08:44;4.30;92.10
2973;DHT22;1496;51.404;7.232;2023-02-28T15:11:13;4.30;91.70
2973;DHT22;1496;51.404;7.232;2023-02-28T15:13:46;4.30;91.60
2973;DHT22;1496;51.404;7.232;2023-02-28T15:19:05;4.20;91.30
2973;DHT22;1496;51.404;7.232;2023-02-28T15:21:35;4.30;92.10
2973;DHT22;1496;51.404;7.232;2023-02-28T15:24:20;4.20;91.00
2973;DHT22;1496;51.404;7.232;2023-02-28T15:26:54;4.20;91.60
2973;DHT22;1496;51.404;7.232;2023-02-28T15:29:24;4.10;91.30
2973;DHT22;1496;51.404;7.232;2023-02-28T15:32:03;4.00;91.40
2973;DHT22;1496;51.404;7.232;2023-02-28T15:36:55;4.00;90.50
2973;DHT22;1496;51.404;7.232;2023-02-28T15:39:28;3.90;90.80
2973;DHT22;1496;51.404;7.232;2023-02-28T15:42:18;3.90;90.60
2973;DHT22;1496;51.404;7.232;2023-02-28T15:44:44;3.80;89.70
2973;DHT22;1496;51.404;7.232;2023-02-28T15:47:22;3.80;88.50
2973;DHT22;1496;51.404;7.232;2023-02-28T15:49:52;3.80;89.60
2973;DHT22;1496;51.404;7.232;2023-02-28T15:52:39;3.80;96.40
2973;DHT22;1496;51.404;7.232;2023-02-28T15:55:27;3.80;89.40
2973;DHT22;1496;51.404;7.232;2023-02-28T15:57:55;3.80;88.50
2973;DHT22;1496;51.404;7.232;2023-02-28T16:00:25;3.80;86.90
2973;DHT22;1496;51.404;7.232;2023-02-28T16:02:52;3.80;87.70
2973;DHT22;1496;51.404;7.232;2023-02-28T16:05:24;3.80;88.40
2973;DHT22;1496;51.404;7.232;2023-02-28T16:07:58;3.80;89.70
2973;DHT22;1496;51.404;7.232;2023-02-28T16:10:25;3.80;89.70
2973;DHT22;1496;51.404;7.232;2023-02-28T16:12:56;3.80;96.70
2973;DHT22;1496;51.404;7.232;2023-02-28T16:15:29;3.80;90.30
2973;DHT22;1496;51.404;7.232;2023-02-28T16:17:56;3.80;90.10
2973;DHT22;1496;51.404;7.232;2023-02-28T16:20:25;3.70;88.90
2973;DHT22;1496;51.404;7.232;2023-02-28T16:22:52;3.70;90.40
2973;DHT22;1496;51.404;7.232;2023-02-28T16:25:20;3.70;89.10
2973;DHT22;1496;51.404;7.232;2023-02-28T16:27:50;3.70;89.20
2973;DHT22;1496;51.404;7.232;2023-02-28T16:30:24;3.70;90.50
2973;DHT22;1496;51.404;7.232;2023-02-28T16:32:53;3.60;90.50
2973;DHT22;1496;51.404;7.232;2023-02-28T16:35:20;3.70;97.40
2973;DHT22;1496;51.404;7.232;2023-02-28T16:37:45;3.60;90.40
2973;DHT22;1496;51.404;7.232;2023-02-28T16:40:19;3.60;90.70
2973;DHT22;1496;51.404;7.232;2023-02-28T16:42:54;3.60;90.50
2973;DHT22;1496;51.404;7.232;2023-02-28T16:45:23;3.60;91.20
2973;DHT22;1496;51.404;7.232;2023-02-28T16:47:49;3.50;90.70
2973;DHT22;1496;51.404;7.232;2023-02-28T16:50:17;3.50;90.80
2973;DHT22;1496;51.404;7.232;2023-02-28T16:52:44;3.40;90.80
2973;DHT22;1496;51.404;7.232;2023-02-28T16:55:11;3.40;90.80
2973;DHT22;1496;51.404;7.232;2023-02-28T16:57:38;3.40;91.10
2973;DHT22;1496;51.404;7.232;2023-02-28T17:00:05;3.30;91.10
2973;DHT22;1496;51.404;7.232;2023-02-28T17:02:33;3.30;91.30
2973;DHT22;1496;51.404;7.232;2023-02-28T17:04:59;3.30;90.90
2973;DHT22;1496;51.404;7.232;2023-02-28T17:07:25;3.30;91.10
2973;DHT22;1496;51.404;7.232;2023-02-28T17:09:50;3.30;91.50
2973;DHT22;1496;51.404;7.232;2023-02-28T17:12:16;3.30;91.60
2973;DHT22;1496;51.404;7.232;2023-02-28T17:14:42;3.20;91.40
2973;DHT22;1496;51.404;7.232;2023-02-28T17:17:09;3.20;91.60
2973;DHT22;1496;51.404;7.232;2023-02-28T17:19:35;3.20;91.90
2973;DHT22;1496;51.404;7.232;2023-02-28T17:22:01;3.20;91.70
2973;DHT22;1496;51.404;7.232;2023-02-28T17:24:28;3.10;91.60
2973;DHT22;1496;51.404;7.232;2023-02-28T17:26:54;3.10;92.40
2973;DHT22;1496;51.404;7.232;2023-02-28T17:29:20;3.10;92.00
2973;DHT22;1496;51.404;7.232;2023-02-28T17:31:46;3.10;92.00
2973;DHT22;1496;51.404;7.232;2023-02-28T17:34:12;3.10;92.00
2973;DHT22;1496;51.404;7.232;2023-02-28T17:36:44;3.10;92.40
2973;DHT22;1496;51.404;7.232;2023-02-28T17:39:12;3.00;92.50
2973;DHT22;1496;51.404;7.232;2023-02-28T17:41:40;3.00;92.70
2973;DHT22;1496;51.404;7.232;2023-02-28T17:44:07;3.00;92.80
2973;DHT22;1496;51.404;7.232;2023-02-28T17:46:33;3.00;92.80
2973;DHT22;1496;51.404;7.232;2023-02-28T17:48:59;3.00;94.10
2973;DHT22;1496;51.404;7.232;2023-02-28T17:51:25;3.10;99.90
2973;DHT22;1496;51.404;7.232;2023-02-28T17:53:51;3.20;94.40
2973;DHT22;1496;51.404;7.232;2023-02-28T17:56:22;3.20;94.80
2973;DHT22;1496;51.404;7.232;2023-02-28T17:58:49;3.10;94.10
2973;DHT22;1496;51.404;7.232;2023-02-28T18:01:15;3.00;93.80
2973;DHT22;1496;51.404;7.232;2023-02-28T18:03:41;3.00;93.40
2973;DHT22;1496;51.404;7.232;2023-02-28T18:06:09;2.90;93.30
2973;DHT22;1496;51.404;7.232;2023-02-28T18:08:38;2.80;93.30
2973;DHT22;1496;51.404;7.232;2023-02-28T18:11:04;2.80;93.50
2973;DHT22;1496;51.404;7.232;2023-02-28T18:13:30;2.80;94.00
2973;DHT22;1496;51.404;7.232;2023-02-28T18:15:55;2.80;94.20
2973;DHT22;1496;51.404;7.232;2023-02-28T18:18:22;2.80;93.90
2973;DHT22;1496;51.404;7.232;2023-02-28T18:20:47;2.80;94.20
2973;DHT22;1496;51.404;7.232;2023-02-28T18:23:15;2.80;94.40
2973;DHT22;1496;51.404;7.232;2023-02-28T18:25:42;2.80;94.00
2973;DHT22;1496;51.404;7.232;2023-02-28T18:28:08;2.90;94.50
2973;DHT22;1496;51.404;7.232;2023-02-28T18:30:35;2.80;94.80
2973;DHT22;1496;51.404;7.232;2023-02-28T18:33:02;2.80;94.80
2973;DHT22;1496;51.404;7.232;2023-02-28T18:35:28;2.80;95.30
2973;DHT22;1496;51.404;7.232;2023-02-28T18:40:27;2.70;95.40
2973;DHT22;1496;51.404;7.232;2023-02-28T18:42:52;2.80;95.60
2973;DHT22;1496;51.404;7.232;2023-02-28T18:45:18;2.80;95.80
2973;DHT22;1496;51.404;7.232;2023-02-28T18:47:43;2.80;95.70
2973;DHT22;1496;51.404;7.232;2023-02-28T18:50:10;2.80;95.50
2973;DHT22;1496;51.404;7.232;2023-02-28T18:52:36;2.70;95.40
2973;DHT22;1496;51.404;7.232;2023-02-28T18:55:03;2.60;95.30
2973;DHT22;1496;51.404;7.232;2023-02-28T18:57:29;2.60;95.50